Accueil
METAR-TAF:

METAR-TAF

Aéroports :

Aéroport international de Chiang Rai

Chiang Rai, Thaïlande

latitude: 19-57-08N, longitude: 099-52-59E, altitude: 390 m

Observation

Le bulletin a été fait il y a 46 minutes, à 17:00 UTC
Vent 2 kt de direction variable
Température 27°C
Humidité 94%
Pression 1007 hPa
Visibilité 10 km ou plus
Nuages épars à une hauteur de 4000 ft

METAR: VTCT 161700Z VRB02KT 9999 SCT040 27/26 Q1007 NOSIG

Heure: 00:46 (17:46 UTC)

Prévision

Le bulletin a été fait il y a 46 minutes, à 17:00 UTC
Prévision valable du 16 à 18 UTC au 17 à 24 UTC
Vent 5 kt de sud
Visibilité 10 km ou plus
Nuages épars à une hauteur de 3500 ft

TAF: VTCT 161700Z 1618/1724 18005KT 9999 SCT035

Observations et prévisions météorologiques de plus de 4000 aéroports (messages METAR et TAF).

Les stations disponibles sont représentées par des disques jaunes et rouges sur la carte.

Passer la souris dessus pour voir le nom de la station.

Cliquer dessus pour voir les observations et prévisions météorologiques.

Pour changer de carte: cliquez sur les boutons verts avec une croix noire pour zoomer, sur le bouton vert avec un tiret pour effectuer un zoom arrière, ou sur les flèches vertes pour les cartes adjacentes.


METAR-TAF: